River Hills, Wisconsin
Current Conditions -  °F | °C
As of 9:55 PM on Thursday 18 Dec 2014 (Local Time) from KMWC Reporting Station
Overcast Overcast  
Wind Chill: -5°   Ceiling: 2200
Heat Index: -2°   Visibility: 10mi
Dew Point: -6°   Wind: 5mph
Humidity: 74%   Direction: 310°NW
Pressure: 30.26"   Gusts: NA
Location:  43.1576°N, 87.9144°W
Report Text: KMWC 190355Z AUTO 31004KT 10SM OVC022 M02/M06 A3026 RMK AO2
Loading
Personal Weather Stations






























Interactive Weather Map New forecast layout! Learn more

10-Day Weather Forecast

Advertisements
Track Severe Weather on mobile